createdAt,value
2018-12-05T00:00:39.245Z,19.83
2018-12-05T00:03:07.170Z,19.40
2018-12-05T00:05:36.116Z,20.17
2018-12-05T00:08:03.981Z,21.70
2018-12-05T00:10:31.917Z,21.70
2018-12-05T00:12:59.815Z,21.60
2018-12-05T00:15:27.679Z,20.10
2018-12-05T00:17:55.631Z,21.47
2018-12-05T00:20:23.483Z,21.37
2018-12-05T00:22:51.371Z,21.83
2018-12-05T00:25:19.257Z,21.00
2018-12-05T00:27:47.194Z,22.00
2018-12-05T00:30:15.093Z,21.87
2018-12-05T00:32:43.086Z,23.27
2018-12-05T00:35:10.935Z,24.17
2018-12-05T00:41:12.210Z,21.47
2018-12-05T00:43:54.039Z,22.47
2018-12-05T00:46:21.902Z,20.70
2018-12-05T00:48:49.785Z,18.50
2018-12-05T00:51:17.619Z,17.77
2018-12-05T00:53:45.535Z,17.47
2018-12-05T00:56:14.524Z,17.47
2018-12-05T00:58:42.456Z,17.07
2018-12-05T01:01:10.330Z,16.77
2018-12-05T01:03:38.263Z,16.40
2018-12-05T01:06:06.149Z,14.87
2018-12-05T01:08:34.080Z,15.33
2018-12-05T01:11:01.916Z,14.80
2018-12-05T01:13:29.808Z,14.90
2018-12-05T01:15:57.655Z,14.33
2018-12-05T01:18:25.541Z,15.47
2018-12-05T01:20:53.388Z,14.13
2018-12-05T01:23:22.302Z,13.77
2018-12-05T01:25:50.158Z,13.03
2018-12-05T01:28:18.099Z,13.57
2018-12-05T01:30:45.923Z,13.47
2018-12-05T01:33:13.848Z,13.63
2018-12-05T01:35:46.642Z,13.13
2018-12-05T01:38:14.582Z,13.50
2018-12-05T01:40:42.403Z,12.30
2018-12-05T01:43:10.325Z,12.60
2018-12-05T01:45:38.174Z,11.67
2018-12-05T01:48:06.058Z,12.10
2018-12-05T01:50:33.887Z,11.40
2018-12-05T01:53:01.785Z,10.60
2018-12-05T01:55:32.134Z,11.30
2018-12-05T01:58:00.252Z,11.90
2018-12-05T02:00:28.119Z,11.40
2018-12-05T02:02:56.029Z,10.83
2018-12-05T02:05:23.934Z,11.13
2018-12-05T02:07:52.900Z,11.53
2018-12-05T02:10:20.955Z,11.07
2018-12-05T02:12:48.791Z,10.43
2018-12-05T02:15:17.732Z,11.17
2018-12-05T02:17:45.609Z,11.77
2018-12-05T02:20:13.536Z,11.77
2018-12-05T02:22:41.358Z,10.53
2018-12-05T02:25:09.281Z,10.90
2018-12-05T02:27:37.163Z,11.50
2018-12-05T02:30:05.483Z,10.47
2018-12-05T02:32:33.365Z,10.40
2018-12-05T02:35:01.297Z,10.27
2018-12-05T02:37:29.189Z,10.23
2018-12-05T02:39:57.141Z,10.40
2018-12-05T02:42:24.993Z,9.77
2018-12-05T02:44:52.959Z,9.43
2018-12-05T02:47:20.802Z,9.03
2018-12-05T02:49:48.741Z,9.23
2018-12-05T02:52:16.608Z,8.10
2018-12-05T02:54:44.500Z,9.93
2018-12-05T02:57:12.360Z,7.73
2018-12-05T02:59:40.195Z,8.43
2018-12-05T03:02:08.015Z,8.23
2018-12-05T03:04:35.897Z,8.07
2018-12-05T03:07:03.814Z,7.27
2018-12-05T03:09:31.832Z,7.87
2018-12-05T03:11:59.664Z,6.93
2018-12-05T03:14:27.505Z,9.03
2018-12-05T03:17:26.011Z,7.73
2018-12-05T03:19:53.821Z,7.07
2018-12-05T03:22:56.618Z,6.77
2018-12-05T03:25:24.430Z,6.70
2018-12-05T03:28:00.605Z,7.57
2018-12-05T03:30:28.428Z,7.27
2018-12-05T03:40:00.451Z,7.07
2018-12-05T03:42:28.339Z,6.80
2018-12-05T03:45:31.656Z,7.83
2018-12-05T03:47:59.720Z,8.20
2018-12-05T03:50:29.587Z,7.77
2018-12-05T03:52:57.439Z,8.80
2018-12-05T04:06:02.788Z,8.47
2018-12-05T04:08:30.629Z,6.60
2018-12-05T04:14:05.825Z,7.40
2018-12-05T04:16:40.820Z,7.80
2018-12-05T04:19:08.686Z,7.87
2018-12-05T04:21:36.682Z,7.63
2018-12-05T04:24:04.493Z,7.63
2018-12-05T04:27:04.202Z,8.17
2018-12-05T04:29:32.047Z,8.30
2018-12-05T04:31:59.905Z,8.73
2018-12-05T04:34:27.665Z,8.10
2018-12-05T04:36:55.424Z,7.80
2018-12-05T04:39:23.187Z,8.23
2018-12-05T04:41:51.208Z,8.80
2018-12-05T04:44:19.084Z,8.13
2018-12-05T04:46:46.832Z,8.77
2018-12-05T04:49:14.575Z,9.00
2018-12-05T04:51:42.340Z,9.23
2018-12-05T04:54:10.052Z,9.37
2018-12-05T04:56:37.824Z,9.93
2018-12-05T04:59:05.699Z,10.43
2018-12-05T05:04:46.160Z,11.60
2018-12-05T05:07:45.562Z,12.23
2018-12-05T05:10:15.887Z,13.70
2018-12-05T05:12:43.943Z,14.50
2018-12-05T05:15:11.855Z,15.53
2018-12-05T05:17:39.724Z,15.03
2018-12-05T05:20:07.730Z,16.37
2018-12-05T05:22:35.585Z,14.93
2018-12-05T05:28:28.916Z,14.77
2018-12-05T05:30:56.738Z,13.33
2018-12-05T05:33:45.169Z,14.00
2018-12-05T05:36:12.991Z,14.30
2018-12-05T05:42:36.532Z,15.37
2018-12-05T05:45:04.501Z,17.83
2018-12-05T05:47:32.353Z,16.70
2018-12-05T05:50:00.292Z,17.13
2018-12-05T05:52:29.236Z,16.67
2018-12-05T05:54:57.097Z,17.23
2018-12-05T05:57:24.913Z,16.70
2018-12-05T05:59:52.759Z,17.67
2018-12-05T06:02:20.622Z,17.30
2018-12-05T06:04:48.466Z,14.77
2018-12-05T06:07:20.040Z,12.57
2018-12-05T06:09:47.866Z,11.50
2018-12-05T06:12:19.947Z,12.07
2018-12-05T06:14:47.811Z,12.53
2018-12-05T06:17:16.666Z,12.20
2018-12-05T06:19:44.519Z,9.63
2018-12-05T06:22:12.387Z,10.83
2018-12-05T06:24:40.219Z,10.93
2018-12-05T06:27:08.045Z,11.30
2018-12-05T06:29:35.869Z,10.73
2018-12-05T06:32:03.712Z,10.07
2018-12-05T06:34:31.573Z,10.63
2018-12-05T06:36:59.434Z,11.50
2018-12-05T06:39:27.302Z,11.27
2018-12-05T06:41:55.250Z,11.07
2018-12-05T06:44:23.109Z,12.33
2018-12-05T06:46:52.006Z,12.40
2018-12-05T06:49:19.868Z,11.67
2018-12-05T06:51:47.738Z,12.30
2018-12-05T06:54:16.829Z,11.73
2018-12-05T06:56:44.677Z,13.10
2018-12-05T06:59:12.511Z,12.10
2018-12-05T07:01:41.350Z,11.40
2018-12-05T07:04:09.198Z,11.90
2018-12-05T07:06:40.493Z,12.17
2018-12-05T07:09:09.194Z,11.27
2018-12-05T07:11:37.021Z,11.60
2018-12-05T07:14:04.838Z,11.97
2018-12-05T07:16:32.688Z,10.00
2018-12-05T07:19:00.523Z,9.70
2018-12-05T07:21:28.380Z,9.00
2018-12-05T07:23:56.257Z,8.77
2018-12-05T07:26:24.060Z,9.23
2018-12-05T07:28:51.928Z,9.93
2018-12-05T07:31:19.769Z,11.80
2018-12-05T07:33:47.608Z,9.47
2018-12-05T07:36:15.474Z,8.90
2018-12-05T07:38:43.298Z,8.80
2018-12-05T07:41:11.130Z,8.80
2018-12-05T07:43:38.958Z,8.73
2018-12-05T07:46:06.789Z,8.10
2018-12-05T07:48:34.659Z,7.27
2018-12-05T07:51:02.832Z,8.03
2018-12-05T07:53:30.686Z,8.83
2018-12-05T07:55:58.528Z,8.17
2018-12-05T07:58:26.355Z,8.37
2018-12-05T08:00:54.185Z,8.30
2018-12-05T08:03:23.443Z,7.73
2018-12-05T08:05:51.308Z,7.83
2018-12-05T08:08:19.153Z,7.87
2018-12-05T08:10:46.985Z,7.80
2018-12-05T08:13:15.819Z,8.00
2018-12-05T08:15:43.680Z,8.70
2018-12-05T08:18:12.811Z,8.70
2018-12-05T08:20:40.910Z,7.43
2018-12-05T08:23:08.703Z,8.13
2018-12-05T08:25:36.603Z,7.97
2018-12-05T08:28:04.429Z,8.13
2018-12-05T08:30:32.271Z,8.20
2018-12-05T08:33:00.083Z,8.83
2018-12-05T08:35:27.908Z,8.50
2018-12-05T08:37:55.747Z,7.53
2018-12-05T08:40:23.575Z,8.40
2018-12-05T08:42:51.506Z,8.00
2018-12-05T08:45:19.358Z,8.93
2018-12-05T08:47:47.316Z,8.30
2018-12-05T08:50:15.154Z,8.43
2018-12-05T08:52:43.042Z,7.67
2018-12-05T08:55:10.946Z,7.07
2018-12-05T08:57:38.864Z,6.47
2018-12-05T09:00:07.254Z,6.20
2018-12-05T09:02:35.221Z,7.30
2018-12-05T09:05:03.227Z,5.80
2018-12-05T09:07:31.141Z,7.10
2018-12-05T09:09:59.000Z,9.07
2018-12-05T09:12:26.881Z,8.23
2018-12-05T09:14:54.758Z,10.30
2018-12-05T09:17:22.593Z,12.73
2018-12-05T09:19:50.509Z,16.17
2018-12-05T09:22:18.362Z,15.03
2018-12-05T09:24:46.192Z,19.60
2018-12-05T09:27:14.051Z,21.30
2018-12-05T09:29:42.017Z,17.40
2018-12-05T09:32:09.886Z,20.90
2018-12-05T09:34:37.722Z,14.17
2018-12-05T09:37:05.532Z,16.07
2018-12-05T09:39:33.399Z,17.53
2018-12-05T09:42:01.259Z,16.23
2018-12-05T09:44:29.090Z,12.93
2018-12-05T09:46:56.875Z,16.77
2018-12-05T09:49:24.763Z,16.13
2018-12-05T09:51:52.568Z,20.43
2018-12-05T09:54:20.411Z,19.17
2018-12-05T09:56:51.803Z,16.67
2018-12-05T09:59:19.714Z,18.17
2018-12-05T10:01:47.600Z,20.67
2018-12-05T10:04:15.521Z,20.40
2018-12-05T10:06:43.431Z,28.50
2018-12-05T10:09:11.286Z,23.40
2018-12-05T10:11:39.274Z,26.27
2018-12-05T10:14:07.142Z,27.77
2018-12-05T10:16:35.112Z,26.33
2018-12-05T10:19:02.997Z,24.53
2018-12-05T10:21:30.932Z,26.73
2018-12-05T10:23:58.741Z,26.83
2018-12-05T10:26:26.664Z,28.10
2018-12-05T10:28:54.482Z,31.10
2018-12-05T10:31:22.387Z,29.80
2018-12-05T10:33:50.264Z,29.40
2018-12-05T10:36:18.112Z,27.17
2018-12-05T10:38:45.956Z,28.70
2018-12-05T10:41:13.842Z,31.17
2018-12-05T10:43:43.099Z,28.37
2018-12-05T10:46:11.019Z,27.77
2018-12-05T10:48:40.603Z,20.77
2018-12-05T10:51:08.736Z,18.90
2018-12-05T10:53:36.580Z,15.57
2018-12-05T10:56:04.586Z,12.77
2018-12-05T10:58:32.429Z,9.93
2018-12-05T11:01:05.843Z,7.83
2018-12-05T11:03:34.247Z,9.57
2018-12-05T11:06:08.004Z,7.70
2018-12-05T11:08:41.478Z,7.97
2018-12-05T11:11:14.867Z,8.60
2018-12-05T11:13:48.318Z,8.33
2018-12-05T11:16:21.714Z,7.40
2018-12-05T11:18:55.165Z,7.73
2018-12-05T11:21:28.578Z,7.80
2018-12-05T11:24:05.987Z,6.97
2018-12-05T11:26:35.979Z,7.40
2018-12-05T11:29:03.997Z,6.97
2018-12-05T11:31:31.857Z,6.97
2018-12-05T11:33:59.776Z,7.80
2018-12-05T11:36:27.629Z,6.97
2018-12-05T11:38:55.665Z,7.23
2018-12-05T11:41:23.481Z,6.97
2018-12-05T11:43:51.512Z,6.97
2018-12-05T11:46:19.371Z,6.67
2018-12-05T11:48:47.291Z,6.60
2018-12-05T11:51:15.219Z,7.37
2018-12-05T11:53:43.142Z,6.03
2018-12-05T11:56:10.942Z,7.50
2018-12-05T11:58:38.865Z,6.90
2018-12-05T12:01:06.716Z,7.80
2018-12-05T12:03:34.638Z,8.07
2018-12-05T12:06:02.510Z,8.13
2018-12-05T12:08:30.407Z,7.43
2018-12-05T12:11:00.283Z,8.40
2018-12-05T12:13:28.217Z,8.83
2018-12-05T12:15:56.222Z,8.60
2018-12-05T12:18:25.308Z,7.37
2018-12-05T12:20:53.163Z,6.73
2018-12-05T12:23:21.083Z,6.87
2018-12-05T12:25:48.918Z,7.40
2018-12-05T12:28:16.834Z,7.30
2018-12-05T12:30:44.698Z,7.87
2018-12-05T12:33:12.651Z,7.43
2018-12-05T12:35:40.518Z,7.20
2018-12-05T12:38:08.481Z,7.53
2018-12-05T12:40:36.319Z,7.10
2018-12-05T12:43:05.378Z,6.93
2018-12-05T12:45:33.285Z,7.47
2018-12-05T12:48:01.206Z,7.70
2018-12-05T12:50:29.046Z,7.97
2018-12-05T12:52:56.970Z,8.90
2018-12-05T12:55:24.853Z,7.33
2018-12-05T12:57:52.798Z,6.80
2018-12-05T13:00:20.651Z,7.37
2018-12-05T13:02:48.616Z,6.80
2018-12-05T13:05:16.551Z,6.13
2018-12-05T13:07:44.483Z,6.83
2018-12-05T13:10:12.346Z,6.80
2018-12-05T13:12:40.181Z,5.87
2018-12-05T13:15:08.173Z,6.60
2018-12-05T13:17:36.623Z,6.80
2018-12-05T13:20:05.016Z,6.07
2018-12-05T13:22:32.867Z,6.07
2018-12-05T13:25:00.731Z,5.13
2018-12-05T13:27:28.601Z,6.30
2018-12-05T13:29:56.431Z,5.40
2018-12-05T13:32:24.336Z,6.20
2018-12-05T13:34:52.197Z,4.97
2018-12-05T13:37:20.175Z,5.23
2018-12-05T13:39:48.024Z,5.37
2018-12-05T13:42:15.895Z,6.23
2018-12-05T13:44:43.867Z,5.50
2018-12-05T13:47:11.720Z,5.23
2018-12-05T13:49:40.566Z,5.33
2018-12-05T13:52:08.403Z,5.77
2018-12-05T13:54:36.387Z,6.33
2018-12-05T13:57:04.281Z,5.60
2018-12-05T13:59:32.148Z,6.07
2018-12-05T14:02:00.018Z,5.43
2018-12-05T14:04:27.877Z,5.03
2018-12-05T14:06:55.692Z,6.07
2018-12-05T14:09:23.542Z,4.77
2018-12-05T14:11:51.549Z,5.23
2018-12-05T14:14:19.431Z,4.93
2018-12-05T14:16:47.301Z,4.43
2018-12-05T14:19:15.150Z,4.33
2018-12-05T14:21:43.000Z,4.33
2018-12-05T14:24:11.903Z,3.97
2018-12-05T14:26:39.782Z,4.30
2018-12-05T14:29:07.725Z,5.23
2018-12-05T14:31:35.589Z,4.67
2018-12-05T14:34:04.466Z,4.30
2018-12-05T14:36:32.323Z,3.83
2018-12-05T14:39:00.262Z,4.33
2018-12-05T14:41:28.099Z,4.87
2018-12-05T14:43:57.049Z,4.87
2018-12-05T14:46:24.899Z,5.23
2018-12-05T14:48:52.710Z,4.77
2018-12-05T14:51:20.559Z,7.15
2018-12-05T14:53:48.473Z,5.90
2018-12-05T14:56:16.341Z,5.27
2018-12-05T14:58:44.282Z,4.37
2018-12-05T15:01:12.142Z,5.53
2018-12-05T15:03:40.042Z,4.93
2018-12-05T15:06:08.007Z,5.17
2018-12-05T15:08:35.957Z,4.47
2018-12-05T15:11:03.896Z,4.93
2018-12-05T15:13:31.774Z,4.90
2018-12-05T15:15:59.674Z,5.23
2018-12-05T15:18:27.566Z,5.40
2018-12-05T15:20:55.421Z,5.03
2018-12-05T15:23:23.266Z,4.87
2018-12-05T15:25:51.079Z,5.60
2018-12-05T15:28:18.914Z,5.20
2018-12-05T15:30:47.040Z,4.77
2018-12-05T15:33:15.057Z,6.13
2018-12-05T15:35:42.941Z,6.70
2018-12-05T15:38:10.767Z,6.23
2018-12-05T15:40:38.597Z,7.13
2018-12-05T15:43:06.461Z,7.23
2018-12-05T15:45:34.298Z,6.10
2018-12-05T15:48:02.184Z,6.00
2018-12-05T15:50:30.059Z,5.97
2018-12-05T15:52:57.971Z,5.20
2018-12-05T15:55:27.396Z,5.40
2018-12-05T15:57:55.570Z,5.80
2018-12-05T16:00:23.450Z,5.20
2018-12-05T16:02:51.278Z,5.70
2018-12-05T16:05:19.222Z,5.77
2018-12-05T16:07:47.108Z,5.63
2018-12-05T16:10:14.977Z,5.87
2018-12-05T16:12:42.922Z,5.37
2018-12-05T16:15:10.801Z,5.27
2018-12-05T16:17:38.655Z,5.70
2018-12-05T16:20:06.644Z,5.27
2018-12-05T16:22:34.659Z,5.03
2018-12-05T16:25:02.681Z,4.57
2018-12-05T16:27:30.550Z,6.33
2018-12-05T16:29:58.392Z,6.83
2018-12-05T16:32:26.224Z,6.27
2018-12-05T16:34:54.069Z,5.60
2018-12-05T16:37:22.067Z,5.07
2018-12-05T16:39:49.905Z,5.17
2018-12-05T16:42:17.875Z,5.00
2018-12-05T16:44:45.792Z,5.77
2018-12-05T16:47:13.700Z,5.27
2018-12-05T16:49:41.552Z,6.03
2018-12-05T16:52:09.875Z,5.20
2018-12-05T16:54:38.050Z,5.50
2018-12-05T16:57:05.936Z,6.23
2018-12-05T16:59:33.759Z,5.20
2018-12-05T17:02:01.697Z,6.43
2018-12-05T17:04:29.537Z,6.95
2018-12-05T17:06:57.574Z,5.40
2018-12-05T17:09:26.355Z,5.60
2018-12-05T17:11:54.623Z,5.27
2018-12-05T17:14:22.491Z,5.43
2018-12-05T17:16:50.323Z,5.33
2018-12-05T17:19:18.202Z,5.57
2018-12-05T17:21:46.071Z,5.37
2018-12-05T17:24:13.933Z,4.97
2018-12-05T17:26:41.818Z,4.47
2018-12-05T17:29:09.685Z,4.60
2018-12-05T17:31:37.542Z,4.63
2018-12-05T17:34:05.367Z,4.93
2018-12-05T17:36:33.271Z,5.20
2018-12-05T17:39:01.128Z,5.70
2018-12-05T17:41:28.962Z,5.30
2018-12-05T17:43:56.824Z,5.70
2018-12-05T17:46:24.853Z,5.27
2018-12-05T17:48:52.720Z,5.33
2018-12-05T17:51:20.589Z,5.43
2018-12-05T17:53:48.432Z,5.97
2018-12-05T17:56:16.303Z,6.43
2018-12-05T17:58:44.160Z,5.97
2018-12-05T18:01:12.033Z,6.77
2018-12-05T18:03:39.887Z,6.33
2018-12-05T18:06:07.716Z,6.17
2018-12-05T18:08:35.568Z,5.73
2018-12-05T18:11:04.328Z,5.90
2018-12-05T18:13:32.244Z,5.90
2018-12-05T18:16:00.120Z,6.53
2018-12-05T18:18:27.946Z,6.37
2018-12-05T18:20:55.813Z,6.07
2018-12-05T18:23:23.685Z,7.07
2018-12-05T18:25:51.569Z,8.47
2018-12-05T18:28:19.418Z,7.00
2018-12-05T18:30:47.300Z,6.67
2018-12-05T18:33:15.166Z,7.13
2018-12-05T18:35:43.040Z,7.27
2018-12-05T18:38:10.905Z,7.07
2018-12-05T18:40:38.804Z,7.20
2018-12-05T18:43:06.627Z,6.33
2018-12-05T18:45:34.483Z,6.20
2018-12-05T18:48:02.348Z,6.20
2018-12-05T18:50:30.242Z,5.93
2018-12-05T18:52:58.116Z,6.30
2018-12-05T18:55:25.947Z,5.83
2018-12-05T18:57:53.814Z,5.93
2018-12-05T19:00:21.639Z,5.70
2018-12-05T19:02:49.468Z,5.93
2018-12-05T19:05:17.442Z,6.20
2018-12-05T19:07:45.317Z,6.03
2018-12-05T19:10:13.210Z,6.97
2018-12-05T19:12:41.119Z,7.37
2018-12-05T19:15:09.131Z,6.33
2018-12-05T19:17:36.985Z,7.37
2018-12-05T19:20:05.330Z,8.27
2018-12-05T19:22:33.217Z,6.70
2018-12-05T19:25:01.116Z,7.53
2018-12-05T19:27:29.083Z,7.77
2018-12-05T19:29:56.957Z,7.17
2018-12-05T19:32:24.846Z,5.93
2018-12-05T19:34:52.700Z,6.03
2018-12-05T19:37:22.225Z,7.17
2018-12-05T19:39:50.314Z,6.43
2018-12-05T19:42:18.306Z,6.13
2018-12-05T19:44:46.173Z,6.50
2018-12-05T19:47:14.090Z,6.73
2018-12-05T19:49:42.028Z,6.77
2018-12-05T19:52:09.937Z,6.87
2018-12-05T19:54:37.793Z,6.63
2018-12-05T19:57:05.725Z,6.33
2018-12-05T19:59:33.615Z,5.73
2018-12-05T20:02:01.678Z,5.63
2018-12-05T20:04:29.562Z,5.27
2018-12-05T20:06:57.569Z,5.50
2018-12-05T20:09:25.544Z,5.27
2018-12-05T20:11:53.507Z,5.27
2018-12-05T20:14:26.806Z,5.40
2018-12-05T20:16:54.709Z,5.67
2018-12-05T20:19:22.611Z,4.67
2018-12-05T20:21:50.448Z,6.50
2018-12-05T20:24:18.377Z,5.57
2018-12-05T20:26:46.275Z,6.70
2018-12-05T20:29:14.177Z,5.27
2018-12-05T20:31:42.063Z,5.87
2018-12-05T20:34:10.042Z,5.90
2018-12-05T20:36:37.935Z,5.63
2018-12-05T20:39:09.363Z,5.90
2018-12-05T20:41:37.404Z,5.10
2018-12-05T20:44:05.393Z,6.60
2018-12-05T20:46:33.266Z,6.80
2018-12-05T20:49:01.361Z,6.07
2018-12-05T20:51:29.195Z,5.30
2018-12-05T20:53:57.662Z,6.27
2018-12-05T20:56:25.603Z,5.80
2018-12-05T20:58:53.527Z,6.90
2018-12-05T21:01:25.443Z,9.63
2018-12-05T21:03:53.517Z,6.20
2018-12-05T21:06:21.481Z,6.53
2018-12-05T21:08:49.550Z,6.07
2018-12-05T21:11:17.515Z,6.70
2018-12-05T21:13:45.469Z,6.90
2018-12-05T21:16:13.635Z,6.40
2018-12-05T21:18:41.674Z,7.23
2018-12-05T21:21:09.668Z,6.53
2018-12-05T21:23:37.567Z,7.13
2018-12-05T21:26:05.443Z,7.00
2018-12-05T21:28:33.328Z,7.70
2018-12-05T21:31:01.150Z,7.83
2018-12-05T21:33:29.055Z,8.03
2018-12-05T21:35:56.929Z,8.97
2018-12-05T21:38:24.827Z,8.70
2018-12-05T21:40:52.714Z,8.90
2018-12-05T21:43:20.562Z,8.63
2018-12-05T21:45:48.517Z,9.20
2018-12-05T21:48:16.395Z,9.73
2018-12-05T21:50:44.331Z,10.53
2018-12-05T21:53:12.231Z,9.77
2018-12-05T21:55:40.170Z,10.07
2018-12-05T21:58:08.013Z,10.23
2018-12-05T22:00:35.888Z,9.90
2018-12-05T22:03:05.428Z,11.50
2018-12-05T22:05:33.454Z,12.40
2018-12-05T22:08:01.286Z,11.63
2018-12-05T22:10:29.108Z,12.33
2018-12-05T22:12:56.956Z,12.97
2018-12-05T22:15:24.876Z,13.73
2018-12-05T22:17:52.729Z,13.73
2018-12-05T22:20:20.706Z,12.67
2018-12-05T22:22:48.502Z,14.47
2018-12-05T22:25:16.879Z,14.80
2018-12-05T22:27:44.626Z,14.90
2018-12-05T22:30:12.377Z,15.67
2018-12-05T22:32:40.138Z,14.77
2018-12-05T22:35:07.895Z,16.80
2018-12-05T22:37:35.651Z,16.70
2018-12-05T22:40:10.451Z,16.07
2018-12-05T22:42:38.230Z,15.27
2018-12-05T22:45:06.062Z,16.20
2018-12-05T22:47:33.832Z,16.67
2018-12-05T22:50:01.587Z,15.97
2018-12-05T22:52:29.501Z,17.73
2018-12-05T22:54:58.361Z,16.73
2018-12-05T22:57:26.166Z,17.17
2018-12-05T22:59:54.009Z,16.80
2018-12-05T23:02:21.849Z,17.80
2018-12-05T23:04:49.707Z,20.93
2018-12-05T23:07:17.695Z,20.13
2018-12-05T23:09:45.676Z,22.50
2018-12-05T23:12:13.520Z,22.83
2018-12-05T23:14:41.407Z,23.30
2018-12-05T23:17:09.417Z,22.97
2018-12-05T23:19:37.308Z,22.00
2018-12-05T23:22:05.254Z,20.83
2018-12-05T23:24:33.066Z,24.57
2018-12-05T23:27:00.971Z,22.70
2018-12-05T23:29:28.834Z,24.37
2018-12-05T23:31:56.782Z,26.23
2018-12-05T23:34:24.949Z,24.30
2018-12-05T23:36:53.015Z,24.57
2018-12-05T23:39:20.901Z,25.80
2018-12-05T23:42:19.540Z,24.47
2018-12-05T23:44:47.409Z,26.00
2018-12-05T23:47:15.277Z,26.63
2018-12-05T23:49:43.073Z,27.20
2018-12-05T23:52:10.845Z,28.63
2018-12-05T23:54:38.579Z,27.60
2018-12-05T23:57:06.347Z,28.70
2018-12-05T23:59:34.109Z,31.27
